createdAt,value
2023-05-19T00:00:32.149Z,4.67
2023-05-19T00:03:40.477Z,5.45
2023-05-19T00:06:44.904Z,4.57
2023-05-19T00:09:47.743Z,4.80
2023-05-19T00:12:53.700Z,5.57
2023-05-19T00:15:57.160Z,4.77
2023-05-19T00:19:02.767Z,4.72
2023-05-19T00:22:05.543Z,4.28
2023-05-19T00:25:08.458Z,5.53
2023-05-19T00:28:11.239Z,5.10
2023-05-19T00:31:13.893Z,5.50
2023-05-19T00:34:16.456Z,5.25
2023-05-19T00:37:19.015Z,5.30
2023-05-19T00:40:22.130Z,6.05
2023-05-19T00:43:24.937Z,4.13
2023-05-19T00:46:27.569Z,4.47
2023-05-19T00:49:30.433Z,4.43
2023-05-19T00:52:33.057Z,4.78
2023-05-19T00:55:37.854Z,5.47
2023-05-19T00:58:41.274Z,4.82
2023-05-19T01:01:45.849Z,5.33
2023-05-19T01:04:49.023Z,3.83
2023-05-19T01:07:53.686Z,4.28
2023-05-19T01:10:56.251Z,4.10
2023-05-19T01:13:58.839Z,6.38
2023-05-19T01:17:17.743Z,5.30
2023-05-19T01:20:32.266Z,4.97
2023-05-19T01:23:57.149Z,4.93
2023-05-19T01:27:25.895Z,7.25
2023-05-19T01:30:36.613Z,5.20
2023-05-19T01:33:43.728Z,5.03
2023-05-19T01:36:49.936Z,4.78
2023-05-19T01:39:53.153Z,4.47
2023-05-19T01:42:58.370Z,4.95
2023-05-19T01:46:02.360Z,4.00
2023-05-19T01:49:06.477Z,4.53
2023-05-19T01:52:09.077Z,4.38
2023-05-19T01:55:11.918Z,4.55
2023-05-19T01:58:52.567Z,4.22
2023-05-19T02:02:00.135Z,4.38
2023-05-19T02:05:13.716Z,4.47
2023-05-19T02:08:38.885Z,4.20
2023-05-19T02:11:52.992Z,5.53
2023-05-19T02:15:11.599Z,4.35
2023-05-19T02:18:18.012Z,4.22
2023-05-19T02:21:20.925Z,4.43
2023-05-19T02:24:24.148Z,4.70
2023-05-19T02:27:26.833Z,4.03
2023-05-19T02:30:31.894Z,4.05
2023-05-19T02:33:36.481Z,5.70
2023-05-19T02:36:41.510Z,4.13
2023-05-19T02:39:45.085Z,5.32
2023-05-19T02:42:48.370Z,4.15
2023-05-19T02:45:51.056Z,4.10
2023-05-19T02:48:53.661Z,4.85
2023-05-19T02:51:56.308Z,4.33
2023-05-19T02:54:59.256Z,3.17
2023-05-19T02:58:01.956Z,3.65
2023-05-19T03:01:04.714Z,3.63
2023-05-19T03:04:07.639Z,4.15
2023-05-19T03:07:10.709Z,4.00
2023-05-19T03:10:13.408Z,4.38
2023-05-19T03:13:17.239Z,4.68
2023-05-19T03:16:19.882Z,5.00
2023-05-19T03:19:22.619Z,4.25
2023-05-19T03:22:25.787Z,3.70
2023-05-19T03:25:28.368Z,3.65
2023-05-19T03:28:30.947Z,3.47
2023-05-19T03:31:33.722Z,4.35
2023-05-19T03:34:36.776Z,4.82
2023-05-19T03:37:39.617Z,4.10
2023-05-19T03:40:42.304Z,3.25
2023-05-19T03:43:47.291Z,4.07
2023-05-19T03:46:50.384Z,3.40
2023-05-19T03:50:25.128Z,3.97
2023-05-19T03:53:32.049Z,4.00
2023-05-19T03:56:34.883Z,4.22
2023-05-19T03:59:37.679Z,4.03
2023-05-19T04:02:41.247Z,4.53
2023-05-19T04:05:43.926Z,4.07
2023-05-19T04:08:46.597Z,4.97
2023-05-19T04:11:49.189Z,5.28
2023-05-19T04:14:51.859Z,4.97
2023-05-19T04:17:54.541Z,5.13
2023-05-19T04:20:57.121Z,3.88
2023-05-19T04:24:01.204Z,4.00
2023-05-19T04:27:05.009Z,3.95
2023-05-19T04:30:08.636Z,4.25
2023-05-19T04:33:11.747Z,4.38
2023-05-19T04:36:14.624Z,3.95
2023-05-19T04:39:18.865Z,3.30
2023-05-19T04:42:22.144Z,4.75
2023-05-19T04:45:26.206Z,3.75
2023-05-19T04:48:31.527Z,3.92
2023-05-19T04:51:34.287Z,4.00
2023-05-19T04:54:38.436Z,4.10
2023-05-19T04:57:41.858Z,4.90
2023-05-19T05:00:44.728Z,3.42
2023-05-19T05:03:48.108Z,4.72
2023-05-19T05:06:52.052Z,5.22
2023-05-19T05:09:55.517Z,3.90
2023-05-19T05:12:58.622Z,4.63
2023-05-19T05:16:01.757Z,4.13
2023-05-19T05:19:06.413Z,5.30
2023-05-19T05:22:12.149Z,6.22
2023-05-19T05:25:16.809Z,6.23
2023-05-19T05:28:20.993Z,6.50
2023-05-19T05:31:23.730Z,7.78
2023-05-19T05:34:27.058Z,6.90
2023-05-19T05:37:30.889Z,6.70
2023-05-19T05:40:34.389Z,6.27
2023-05-19T05:43:39.240Z,13.50
2023-05-19T05:46:42.404Z,10.75
2023-05-19T05:49:48.383Z,5.43
2023-05-19T05:52:53.856Z,6.47
2023-05-19T05:55:58.008Z,9.00
2023-05-19T05:59:06.139Z,7.95
2023-05-19T06:02:12.251Z,8.15
2023-05-19T06:05:27.318Z,10.15
2023-05-19T06:08:32.984Z,8.32
2023-05-19T06:11:36.416Z,6.80
2023-05-19T06:14:41.875Z,5.82
2023-05-19T06:18:14.980Z,9.50
2023-05-19T06:21:17.867Z,12.00
2023-05-19T06:24:20.613Z,10.48
2023-05-19T06:27:23.679Z,10.17
2023-05-19T06:30:26.818Z,10.35
2023-05-19T06:34:00.261Z,11.52
2023-05-19T06:37:04.767Z,10.45
2023-05-19T06:40:09.645Z,8.25
2023-05-19T06:43:16.546Z,10.37
2023-05-19T06:46:44.439Z,7.78
2023-05-19T06:49:51.880Z,8.10
2023-05-19T06:52:55.023Z,8.02
2023-05-19T06:56:00.839Z,8.02
2023-05-19T06:59:08.282Z,7.30
2023-05-19T07:02:13.163Z,8.80
2023-05-19T07:05:16.792Z,6.70
2023-05-19T07:08:24.541Z,8.15
2023-05-19T07:11:30.532Z,8.07
2023-05-19T07:14:37.274Z,8.23
2023-05-19T07:17:39.979Z,11.02
2023-05-19T07:20:43.635Z,8.23
2023-05-19T07:23:48.854Z,7.50
2023-05-19T07:26:52.562Z,5.85
2023-05-19T07:29:55.498Z,6.43
2023-05-19T07:32:58.330Z,9.40
2023-05-19T07:36:01.224Z,12.38
2023-05-19T07:39:04.109Z,6.53
2023-05-19T07:42:06.869Z,8.32
2023-05-19T07:45:09.750Z,7.57
2023-05-19T07:48:13.724Z,8.95
2023-05-19T07:51:18.459Z,12.90
2023-05-19T07:54:24.520Z,7.00
2023-05-19T07:57:30.332Z,10.18
2023-05-19T08:00:34.078Z,8.83
2023-05-19T08:03:43.657Z,10.07
2023-05-19T08:06:48.534Z,9.60
2023-05-19T08:09:53.368Z,8.88
2023-05-19T08:12:57.463Z,7.05
2023-05-19T08:16:05.955Z,13.17
2023-05-19T08:19:13.646Z,11.07
2023-05-19T08:22:17.011Z,7.32
2023-05-19T08:25:20.066Z,7.90
2023-05-19T08:28:23.253Z,10.25
2023-05-19T08:31:30.190Z,8.27
2023-05-19T08:34:34.009Z,8.80
2023-05-19T08:37:39.702Z,10.30
2023-05-19T08:40:43.580Z,10.40
2023-05-19T08:43:46.501Z,11.38
2023-05-19T08:46:49.972Z,16.60
2023-05-19T08:49:54.010Z,10.45
2023-05-19T08:53:04.967Z,12.80
2023-05-19T08:56:16.756Z,13.35
2023-05-19T08:59:20.139Z,9.75
2023-05-19T09:02:25.004Z,10.63
2023-05-19T09:05:28.104Z,9.98
2023-05-19T09:08:32.344Z,14.20
2023-05-19T09:11:37.925Z,12.10
2023-05-19T09:14:43.079Z,12.88
2023-05-19T09:17:48.349Z,10.10
2023-05-19T09:20:51.321Z,13.13
2023-05-19T09:23:55.543Z,9.95
2023-05-19T09:27:00.024Z,10.90
2023-05-19T09:30:09.429Z,12.30
2023-05-19T09:33:17.777Z,9.27
2023-05-19T09:39:49.298Z,10.63
2023-05-19T09:42:54.105Z,14.77
2023-05-19T09:46:15.571Z,9.18
2023-05-19T09:49:22.175Z,11.33
2023-05-19T09:52:28.834Z,9.43
2023-05-19T09:55:33.390Z,11.13
2023-05-19T09:58:36.996Z,11.82
2023-05-19T10:01:44.198Z,10.75
2023-05-19T10:04:48.784Z,11.30
2023-05-19T10:07:52.931Z,10.27
2023-05-19T10:10:58.613Z,8.57
2023-05-19T10:14:01.554Z,10.25
2023-05-19T10:17:04.630Z,15.38
2023-05-19T10:20:09.777Z,13.07
2023-05-19T10:23:13.660Z,9.50
2023-05-19T10:26:17.088Z,11.45
2023-05-19T10:29:29.638Z,8.45
2023-05-19T10:32:33.485Z,12.23
2023-05-19T10:36:09.284Z,12.20
2023-05-19T10:39:29.707Z,11.25
2023-05-19T10:42:41.091Z,10.98
2023-05-19T10:45:50.759Z,9.85
2023-05-19T10:48:54.705Z,10.13
2023-05-19T10:51:57.900Z,11.83
2023-05-19T10:55:01.285Z,11.40
2023-05-19T10:58:04.044Z,15.02
2023-05-19T11:01:17.037Z,10.57
2023-05-19T11:04:38.399Z,11.18
2023-05-19T11:07:45.022Z,10.30
2023-05-19T11:10:52.424Z,12.13
2023-05-19T11:14:00.209Z,11.35
2023-05-19T11:17:03.157Z,15.10
2023-05-19T11:20:08.791Z,12.32
2023-05-19T11:23:20.356Z,12.33
2023-05-19T11:26:43.579Z,12.30
2023-05-19T11:29:48.591Z,10.75
2023-05-19T11:32:51.902Z,13.98
2023-05-19T11:35:58.596Z,10.52
2023-05-19T11:39:02.729Z,10.57
2023-05-19T11:42:05.519Z,12.23
2023-05-19T11:45:08.784Z,14.82
2023-05-19T11:48:12.579Z,13.50
2023-05-19T11:51:16.881Z,10.95
2023-05-19T11:54:19.925Z,13.00
2023-05-19T11:57:22.698Z,13.10
2023-05-19T12:00:30.472Z,10.75
2023-05-19T12:03:33.339Z,12.00
2023-05-19T12:06:37.167Z,12.18
2023-05-19T12:09:40.234Z,8.93
2023-05-19T12:12:45.263Z,10.40
2023-05-19T12:15:47.966Z,13.10
2023-05-19T12:18:50.592Z,13.43
2023-05-19T12:21:54.008Z,9.63
2023-05-19T12:25:00.221Z,12.90
2023-05-19T12:28:05.793Z,9.43
2023-05-19T12:31:09.485Z,12.15
2023-05-19T12:34:13.422Z,13.77
2023-05-19T12:37:16.068Z,11.82
2023-05-19T12:40:18.785Z,8.90
2023-05-19T12:43:23.591Z,10.15
2023-05-19T12:46:26.359Z,10.95
2023-05-19T12:49:30.002Z,9.40
2023-05-19T12:52:36.175Z,10.18
2023-05-19T12:55:43.660Z,9.47
2023-05-19T12:58:46.380Z,15.20
2023-05-19T13:01:59.661Z,10.05
2023-05-19T13:05:07.028Z,9.95
2023-05-19T13:08:12.156Z,10.40
2023-05-19T13:11:14.924Z,9.63
2023-05-19T13:14:20.679Z,9.00
2023-05-19T13:17:23.671Z,9.43
2023-05-19T13:20:28.353Z,10.43
2023-05-19T13:23:32.024Z,9.75
2023-05-19T13:26:35.517Z,10.77
2023-05-19T13:29:38.083Z,10.02
2023-05-19T13:32:40.813Z,10.68
2023-05-19T13:35:44.255Z,8.93
2023-05-19T13:38:47.296Z,10.30
2023-05-19T13:41:50.677Z,10.83
2023-05-19T13:44:56.565Z,12.85
2023-05-19T13:47:59.202Z,11.73
2023-05-19T13:51:02.452Z,8.77
2023-05-19T13:54:05.228Z,8.50
2023-05-19T13:57:07.898Z,10.57
2023-05-19T14:00:10.858Z,9.52
2023-05-19T14:03:19.733Z,9.48
2023-05-19T14:06:22.614Z,8.65
2023-05-19T14:09:25.220Z,10.40
2023-05-19T14:12:39.374Z,10.70
2023-05-19T14:15:50.022Z,9.10
2023-05-19T14:18:52.662Z,11.25
2023-05-19T14:21:55.232Z,10.85
2023-05-19T14:24:57.962Z,7.75
2023-05-19T14:28:01.061Z,8.97
2023-05-19T14:31:03.700Z,9.90
2023-05-19T14:34:06.472Z,8.75
2023-05-19T14:37:09.004Z,9.25
2023-05-19T14:40:13.409Z,10.07
2023-05-19T14:43:16.071Z,10.60
2023-05-19T14:46:18.965Z,10.00
2023-05-19T14:49:21.619Z,10.15
2023-05-19T14:52:24.222Z,9.40
2023-05-19T14:55:29.783Z,9.70
2023-05-19T14:58:32.376Z,11.53
2023-05-19T15:01:35.021Z,9.57
2023-05-19T15:04:37.736Z,9.38
2023-05-19T15:07:40.651Z,17.08
2023-05-19T15:10:43.290Z,11.40
2023-05-19T15:13:45.893Z,11.70
2023-05-19T15:16:48.491Z,12.18
2023-05-19T15:19:51.212Z,9.18
2023-05-19T15:22:53.832Z,8.38
2023-05-19T15:25:56.643Z,8.52
2023-05-19T15:28:59.225Z,10.50
2023-05-19T15:32:03.343Z,10.32
2023-05-19T15:35:06.511Z,11.25
2023-05-19T15:38:10.244Z,9.00
2023-05-19T15:41:12.941Z,9.18
2023-05-19T15:44:15.633Z,8.07
2023-05-19T15:47:18.233Z,8.82
2023-05-19T15:50:20.931Z,11.00
2023-05-19T15:53:23.803Z,11.82
2023-05-19T15:56:26.635Z,10.27
2023-05-19T15:59:29.417Z,9.80
2023-05-19T16:02:32.042Z,9.32
2023-05-19T16:05:34.672Z,10.88
2023-05-19T16:08:38.104Z,8.93
2023-05-19T16:11:40.916Z,9.40
2023-05-19T16:14:43.876Z,9.83
2023-05-19T16:17:46.490Z,10.02
2023-05-19T16:20:50.612Z,7.47
2023-05-19T16:23:53.232Z,9.13
2023-05-19T16:26:55.894Z,12.02
2023-05-19T16:29:58.590Z,9.47
2023-05-19T16:33:01.556Z,9.70
2023-05-19T16:36:06.610Z,8.98
2023-05-19T16:39:09.307Z,8.98
2023-05-19T16:42:12.009Z,7.90
2023-05-19T16:45:17.625Z,10.03
2023-05-19T16:48:21.888Z,10.93
2023-05-19T16:51:24.658Z,9.65
2023-05-19T16:54:29.442Z,10.82
2023-05-19T16:57:32.306Z,11.50
2023-05-19T17:00:35.290Z,9.60
2023-05-19T17:03:38.145Z,9.35
2023-05-19T17:06:40.814Z,10.02
2023-05-19T17:09:43.909Z,8.65
2023-05-19T17:12:46.448Z,10.40
2023-05-19T17:15:52.722Z,11.27
2023-05-19T17:18:56.123Z,8.90
2023-05-19T17:21:58.713Z,10.75
2023-05-19T17:25:01.496Z,11.50
2023-05-19T17:28:04.383Z,8.75
2023-05-19T17:31:13.307Z,10.80
2023-05-19T17:34:15.873Z,10.70
2023-05-19T17:37:26.538Z,10.52
2023-05-19T17:40:29.541Z,8.90
2023-05-19T17:43:32.124Z,9.05
2023-05-19T17:46:35.080Z,9.67
2023-05-19T17:49:37.886Z,12.15
2023-05-19T17:52:41.103Z,10.20
2023-05-19T17:55:51.605Z,9.45
2023-05-19T17:58:56.233Z,9.15
2023-05-19T18:02:00.123Z,9.57
2023-05-19T18:05:04.241Z,8.82
2023-05-19T18:08:09.348Z,12.00
2023-05-19T18:11:16.009Z,8.98
2023-05-19T18:14:18.656Z,8.13
2023-05-19T18:17:21.280Z,8.50
2023-05-19T18:20:24.160Z,7.78
2023-05-19T18:23:26.768Z,11.70
2023-05-19T18:26:29.371Z,8.77
2023-05-19T18:29:34.033Z,8.88
2023-05-19T18:32:37.174Z,9.33
2023-05-19T18:35:39.904Z,7.68
2023-05-19T18:38:42.609Z,8.73
2023-05-19T18:41:47.328Z,9.57
2023-05-19T18:44:50.900Z,8.18
2023-05-19T18:47:53.991Z,8.77
2023-05-19T18:50:57.388Z,9.05
2023-05-19T18:54:00.160Z,9.65
2023-05-19T18:57:03.651Z,9.05
2023-05-19T19:00:07.053Z,8.98
2023-05-19T19:03:11.874Z,8.70
2023-05-19T19:06:17.026Z,8.13
2023-05-19T19:09:19.613Z,9.40
2023-05-19T19:12:22.577Z,9.43
2023-05-19T19:15:26.117Z,9.55
2023-05-19T19:18:28.926Z,8.80
2023-05-19T19:21:31.858Z,9.10
2023-05-19T19:24:34.468Z,10.20
2023-05-19T19:27:37.002Z,9.85
2023-05-19T19:30:39.831Z,11.10
2023-05-19T19:33:43.596Z,9.83
2023-05-19T19:36:47.963Z,8.82
2023-05-19T19:39:50.542Z,7.82
2023-05-19T19:42:53.158Z,8.15
2023-05-19T19:46:03.020Z,10.68
2023-05-19T19:49:05.678Z,8.57
2023-05-19T19:52:08.522Z,7.68
2023-05-19T19:55:11.448Z,7.72
2023-05-19T19:58:14.037Z,8.80
2023-05-19T20:01:16.890Z,9.85
2023-05-19T20:04:19.842Z,9.80
2023-05-19T20:07:23.285Z,7.22
2023-05-19T20:10:26.050Z,7.80
2023-05-19T20:13:30.738Z,7.35
2023-05-19T20:16:34.981Z,8.57
2023-05-19T20:19:37.821Z,8.33
2023-05-19T20:22:40.555Z,7.90
2023-05-19T20:25:57.863Z,8.43
2023-05-19T20:29:05.658Z,8.27
2023-05-19T20:32:08.224Z,8.00
2023-05-19T20:35:13.924Z,7.70
2023-05-19T20:38:16.702Z,8.65
2023-05-19T20:41:19.259Z,10.23
2023-05-19T20:44:21.949Z,9.35
2023-05-19T20:47:30.542Z,9.00
2023-05-19T20:50:33.903Z,8.03
2023-05-19T20:53:36.731Z,8.70
2023-05-19T20:56:39.373Z,9.45
2023-05-19T20:59:42.107Z,8.95
2023-05-19T21:02:44.906Z,8.45
2023-05-19T21:05:47.525Z,8.17
2023-05-19T21:08:50.631Z,7.45
2023-05-19T21:11:56.214Z,9.23
2023-05-19T21:15:01.531Z,7.32
2023-05-19T21:18:04.306Z,8.43
2023-05-19T21:21:08.099Z,8.50
2023-05-19T21:24:12.838Z,7.32
2023-05-19T21:27:15.780Z,8.95
2023-05-19T21:30:18.361Z,7.95
2023-05-19T21:33:20.960Z,7.95
2023-05-19T21:36:23.618Z,8.17
2023-05-19T21:39:26.246Z,7.75
2023-05-19T21:42:29.787Z,7.35
2023-05-19T21:45:32.408Z,7.78
2023-05-19T21:48:34.945Z,8.35
2023-05-19T21:51:37.521Z,8.70
2023-05-19T21:54:40.032Z,7.45
2023-05-19T21:57:42.613Z,10.68
2023-05-19T22:00:52.718Z,8.10
2023-05-19T22:03:55.319Z,7.72
2023-05-19T22:06:58.743Z,8.00
2023-05-19T22:10:01.600Z,7.13
2023-05-19T22:13:04.234Z,9.20
2023-05-19T22:16:08.606Z,7.05
2023-05-19T22:19:11.838Z,7.65
2023-05-19T22:22:14.824Z,8.90
2023-05-19T22:25:17.585Z,8.10
2023-05-19T22:28:20.191Z,8.23
2023-05-19T22:31:22.708Z,8.93
2023-05-19T22:34:25.398Z,8.73
2023-05-19T22:37:29.118Z,8.17
2023-05-19T22:40:32.653Z,9.40
2023-05-19T22:43:35.833Z,10.85
2023-05-19T22:46:38.493Z,10.32
2023-05-19T22:49:41.713Z,10.80
2023-05-19T22:52:44.230Z,11.33
2023-05-19T22:55:46.743Z,11.73
2023-05-19T22:58:49.240Z,10.40
2023-05-19T23:01:51.927Z,8.95
2023-05-19T23:04:54.498Z,9.35
2023-05-19T23:07:57.077Z,10.47
2023-05-19T23:11:01.276Z,11.57
2023-05-19T23:14:03.825Z,12.32
2023-05-19T23:17:06.484Z,13.27
2023-05-19T23:20:09.556Z,11.30
2023-05-19T23:23:12.197Z,11.03
2023-05-19T23:26:14.673Z,12.68
2023-05-19T23:29:17.392Z,11.48
2023-05-19T23:32:19.981Z,12.05
2023-05-19T23:35:22.862Z,11.80
2023-05-19T23:38:25.838Z,10.93
2023-05-19T23:41:28.712Z,12.32
2023-05-19T23:44:31.323Z,13.10
2023-05-19T23:47:33.851Z,13.02
2023-05-19T23:50:36.718Z,12.93
2023-05-19T23:53:39.317Z,13.43
2023-05-19T23:56:41.889Z,12.98
2023-05-19T23:59:44.631Z,12.23
